Airfield :
LOGIN :

Register | Disclaimer

   EN    FR    IT 

 










Legend :    VFR   Marginal VFR   IFR   Intensive IFR   Very Intensive IFR
Visi :
Ceiling :
>= 8 km
>= 3000ft
5 to 8 km
1000 to 3000 ft
1500m to 5 km
500 to 1000 ft
800 to 1500m
200 to 500 ft
< 800m
< 200 ft
Symbols :   Thunderstorms  Fog  Heavy snow  Heavy precipitations  Wind > 20 kt
SIGMETs :     Misc.  Thunderstorms  Icing  Turbulence  Mountain Waves  Volcanic Ashes






- Airport Elevation : 55 ft
- IATA code : DSA


EGCN - Robin Hood Doncaster Sheffield

CURRENT METAR :
  • 070950Z 27008KT 240V310 9999 FEW026 SCT037 09/04 Q1015

EXPIRED METARs :
  • 070920Z 27006KT 210V350 9999 FEW023 SCT029 09/04 Q1015
  • 070850Z 27005KT 9999 FEW018 SCT037 08/04 Q1015
  • 070820Z 28005KT 250V330 9999 FEW018 SCT023 09/05 Q1015
  • 070750Z 28007KT 250V320 9999 SCT031 08/04 Q1015
  • 070720Z 25004KT 210V290 9999 FEW026 SCT034 07/05 Q1014

TAF TAF EGCN
Valid from the 07 at 06:00 until the 08 at 06:00 UTC


070458Z 0706/0806 27005KT 9999 FEW020
TEMPO 0709/0720 7000 SHRA



MET'MAP, your aeronautical weather chart ! - Copyright ORBIFLY December 2007 - Disclaimer

ORBIFLY MET'MAP TEAM :

Programming & Development : Alexandra Zaïnal
Concept & original design : Baudouin d'Aumeries
Assistance for programming : Marc-Olivier Méhu
Technical & hardware support : Manuel Goepfert

Contact : metmap@orbifly.com




SOURCES & CREDITS :

   NOAA